Millen, Georgia
Current Conditions -  °F | °C
As of 4:35 PM on Wednesday 17 Dec 2014 (Local Time) from KJYL Reporting Station
Clear Clear  
Wind Chill: 61°   Ceiling: Unl
Heat Index: 61°   Visibility: 10mi
Dew Point: 44°   Wind: 0mph
Humidity: 53%   Direction: NA
Pressure: 30.09"   Gusts: NA
Location:  32.8°N, 81.95°W
Report Text: KJYL 172135Z AUTO 00000KT 10SM CLR 16/07 A3009 RMK AO2 T01600065
Loading
Personal Weather Stations






























Interactive Weather Map New forecast layout! Learn more

10-Day Weather Forecast

Advertisements
Track Severe Weather on mobile